createdAt,value
2023-02-12T00:00:38.376Z,42.30
2023-02-12T00:03:06.508Z,39.28
2023-02-12T00:05:38.147Z,44.38
2023-02-12T00:08:06.372Z,43.33
2023-02-12T00:10:34.079Z,41.58
2023-02-12T00:13:02.117Z,45.40
2023-02-12T00:15:29.866Z,44.40
2023-02-12T00:17:57.516Z,44.03
2023-02-12T00:20:25.230Z,44.40
2023-02-12T00:22:54.497Z,40.58
2023-02-12T00:25:22.542Z,46.35
2023-02-12T00:27:50.310Z,46.55
2023-02-12T00:30:18.633Z,40.65
2023-02-12T00:32:46.382Z,40.60
2023-02-12T00:35:14.425Z,42.05
2023-02-12T00:37:42.135Z,42.92
2023-02-12T00:40:12.163Z,46.45
2023-02-12T00:42:39.805Z,42.85
2023-02-12T00:45:08.277Z,43.67
2023-02-12T00:47:35.967Z,41.05
2023-02-12T00:50:03.678Z,43.38
2023-02-12T00:52:31.405Z,41.03
2023-02-12T00:54:59.127Z,42.10
2023-02-12T00:57:28.217Z,45.20
2023-02-12T00:59:55.872Z,45.78
2023-02-12T01:02:23.623Z,43.15
2023-02-12T01:04:51.411Z,43.13
2023-02-12T01:07:19.048Z,43.17
2023-02-12T01:09:46.807Z,41.88
2023-02-12T01:12:14.422Z,43.90
2023-02-12T01:14:43.463Z,42.30
2023-02-12T01:17:11.172Z,49.53
2023-02-12T01:19:38.871Z,51.28
2023-02-12T01:22:06.558Z,47.42
2023-02-12T01:24:34.237Z,43.20
2023-02-12T01:27:01.913Z,53.20
2023-02-12T01:29:29.584Z,50.30
2023-02-12T01:31:58.671Z,39.08
2023-02-12T01:34:26.404Z,42.08
2023-02-12T01:36:54.073Z,48.13
2023-02-12T01:39:22.256Z,42.53
2023-02-12T01:41:52.061Z,44.08
2023-02-12T01:44:22.256Z,41.53
2023-02-12T01:46:51.900Z,39.55
2023-02-12T01:49:25.847Z,38.75
2023-02-12T01:51:57.176Z,35.92
2023-02-12T01:54:26.782Z,41.58
2023-02-12T01:56:54.789Z,41.65
2023-02-12T01:59:23.260Z,41.22
2023-02-12T02:01:51.003Z,40.28
2023-02-12T02:04:23.480Z,42.25
2023-02-12T02:06:56.414Z,38.60
2023-02-12T02:09:24.832Z,49.95
2023-02-12T02:12:10.294Z,41.90
2023-02-12T02:14:39.725Z,42.67
2023-02-12T02:17:34.608Z,40.67
2023-02-12T02:20:42.806Z,39.38
2023-02-12T02:23:43.225Z,44.00
2023-02-12T02:26:30.813Z,42.67
2023-02-12T02:29:21.520Z,47.88
2023-02-12T02:31:58.150Z,52.95
2023-02-12T02:34:35.130Z,44.35
2023-02-12T02:37:12.133Z,47.70
2023-02-12T02:39:45.064Z,47.78
2023-02-12T02:42:18.384Z,47.47
2023-02-12T02:44:51.701Z,46.88
2023-02-12T02:47:24.892Z,40.95
2023-02-12T02:49:57.390Z,42.88
2023-02-12T02:52:33.890Z,44.45
2023-02-12T02:55:06.718Z,43.15
2023-02-12T02:57:40.039Z,41.55
2023-02-12T03:00:14.741Z,46.55
2023-02-12T03:02:48.206Z,46.17
2023-02-12T03:05:22.437Z,43.80
2023-02-12T03:07:54.794Z,46.03
2023-02-12T03:10:26.684Z,47.60
2023-02-12T03:13:00.599Z,47.70
2023-02-12T03:15:34.921Z,45.17
2023-02-12T03:18:08.946Z,41.65
2023-02-12T03:20:43.210Z,49.83
2023-02-12T03:23:16.304Z,49.50
2023-02-12T03:25:50.923Z,49.28
2023-02-12T03:28:22.252Z,50.95
2023-02-12T03:30:57.422Z,52.35
2023-02-12T03:33:31.599Z,49.08
2023-02-12T03:36:03.321Z,42.15
2023-02-12T03:38:38.477Z,38.00
2023-02-12T03:41:12.411Z,46.45
2023-02-12T03:43:50.333Z,43.65
2023-02-12T03:46:24.102Z,41.63
2023-02-12T03:49:02.402Z,37.38
2023-02-12T03:51:34.603Z,42.03
2023-02-12T03:54:03.593Z,39.58
2023-02-12T03:56:37.330Z,46.25
2023-02-12T03:59:05.723Z,44.00
2023-02-12T04:01:35.107Z,37.85
2023-02-12T04:04:07.132Z,38.05
2023-02-12T04:06:35.156Z,38.10
2023-02-12T04:09:06.100Z,40.13
2023-02-12T04:11:47.732Z,42.70
2023-02-12T04:14:25.820Z,42.10
2023-02-12T04:17:01.525Z,40.25
2023-02-12T04:19:40.608Z,36.92
2023-02-12T04:22:19.663Z,38.10
2023-02-12T04:24:53.474Z,40.85
2023-02-12T04:27:26.566Z,38.22
2023-02-12T04:29:59.896Z,39.38
2023-02-12T04:32:34.621Z,38.17
2023-02-12T04:35:08.405Z,37.88
2023-02-12T04:37:41.130Z,36.60
2023-02-12T04:40:14.603Z,39.78
2023-02-12T04:42:44.103Z,42.03
2023-02-12T04:45:12.557Z,38.40
2023-02-12T04:47:40.231Z,38.45
2023-02-12T04:50:10.529Z,40.90
2023-02-12T04:52:38.121Z,39.10
2023-02-12T04:55:06.202Z,38.20
2023-02-12T04:57:33.931Z,41.90
2023-02-12T05:00:01.849Z,44.88
2023-02-12T05:02:29.522Z,40.65
2023-02-12T05:04:57.178Z,42.13
2023-02-12T05:07:26.188Z,38.22
2023-02-12T05:09:53.892Z,39.38
2023-02-12T05:12:21.698Z,39.78
2023-02-12T05:14:49.305Z,44.28
2023-02-12T05:17:17.057Z,43.55
2023-02-12T05:19:44.748Z,44.75
2023-02-12T05:22:12.448Z,41.40
2023-02-12T05:24:41.561Z,44.15
2023-02-12T05:27:09.588Z,41.83
2023-02-12T05:29:37.451Z,42.42
2023-02-12T05:32:06.898Z,45.08
2023-02-12T05:34:35.425Z,49.35
2023-02-12T05:37:03.084Z,43.55
2023-02-12T05:39:30.846Z,46.80
2023-02-12T05:41:59.836Z,44.28
2023-02-12T05:44:27.550Z,39.75
2023-02-12T05:46:55.213Z,39.35
2023-02-12T05:49:22.841Z,46.45
2023-02-12T05:51:50.625Z,50.75
2023-02-12T05:54:18.225Z,43.00
2023-02-12T05:56:48.181Z,44.40
2023-02-12T05:59:21.410Z,42.40
2023-02-12T06:01:51.082Z,41.63
2023-02-12T06:04:20.243Z,50.30
2023-02-12T06:06:48.025Z,50.42
2023-02-12T06:09:16.195Z,41.15
2023-02-12T06:11:44.528Z,41.17
2023-02-12T06:14:15.859Z,51.65
2023-02-12T06:16:47.629Z,48.10
2023-02-12T06:19:15.624Z,48.28
2023-02-12T06:21:43.362Z,44.30
2023-02-12T06:24:12.085Z,46.38
2023-02-12T06:26:39.841Z,50.35
2023-02-12T06:29:07.748Z,44.70
2023-02-12T06:31:37.497Z,48.13
2023-02-12T06:34:09.282Z,52.03
2023-02-12T06:36:38.759Z,49.15
2023-02-12T06:39:09.053Z,45.55
2023-02-12T06:41:36.676Z,47.65
2023-02-12T06:44:04.802Z,52.25
2023-02-12T06:46:32.674Z,44.90
2023-02-12T06:49:01.699Z,48.15
2023-02-12T06:51:31.515Z,46.33
2023-02-12T06:53:59.604Z,53.65
2023-02-12T06:56:28.414Z,48.65
2023-02-12T06:58:57.735Z,50.83
2023-02-12T07:01:26.944Z,47.33
2023-02-12T07:03:58.611Z,48.10
2023-02-12T07:06:27.634Z,46.75
2023-02-12T07:08:57.553Z,51.33
2023-02-12T07:11:26.069Z,49.30
2023-02-12T07:13:53.747Z,44.83
2023-02-12T07:16:22.198Z,46.55
2023-02-12T07:18:50.299Z,51.13
2023-02-12T07:21:18.629Z,48.15
2023-02-12T07:23:50.854Z,48.72
2023-02-12T07:26:22.411Z,55.00
2023-02-12T07:28:50.605Z,48.83
2023-02-12T07:31:20.580Z,54.35
2023-02-12T07:33:48.720Z,55.10
2023-02-12T07:36:18.791Z,54.53
2023-02-12T07:38:46.820Z,52.40
2023-02-12T07:41:16.245Z,58.15
2023-02-12T07:43:47.615Z,54.95
2023-02-12T07:46:17.682Z,52.38
2023-02-12T07:48:46.035Z,56.05
2023-02-12T07:51:16.045Z,57.58
2023-02-12T07:53:44.025Z,51.85
2023-02-12T07:56:13.640Z,53.50
2023-02-12T07:58:45.009Z,53.45
2023-02-12T08:01:16.021Z,56.47
2023-02-12T08:03:44.156Z,57.10
2023-02-12T08:06:14.265Z,52.67
2023-02-12T08:08:42.081Z,55.53
2023-02-12T08:11:12.729Z,55.95
2023-02-12T08:13:40.842Z,57.63
2023-02-12T08:16:10.905Z,49.50
2023-02-12T08:18:40.414Z,54.40
2023-02-12T08:21:10.368Z,51.55
2023-02-12T08:23:38.213Z,48.88
2023-02-12T08:26:10.995Z,51.97
2023-02-12T08:28:40.989Z,54.85
2023-02-12T08:31:11.204Z,54.53
2023-02-12T08:33:40.369Z,58.80
2023-02-12T08:36:10.566Z,50.47
2023-02-12T08:38:39.540Z,50.22
2023-02-12T08:41:09.439Z,57.63
2023-02-12T08:43:37.639Z,54.55
2023-02-12T08:46:08.555Z,54.17
2023-02-12T08:48:36.924Z,51.38
2023-02-12T08:51:08.303Z,55.35
2023-02-12T08:53:36.254Z,50.83
2023-02-12T08:56:04.802Z,64.07
2023-02-12T08:58:32.949Z,68.05
2023-02-12T09:01:00.944Z,70.05
2023-02-12T09:03:28.759Z,59.53
2023-02-12T09:05:56.839Z,64.95
2023-02-12T09:08:26.127Z,62.30
2023-02-12T09:10:54.110Z,71.15
2023-02-12T09:13:21.870Z,68.25
2023-02-12T09:15:49.665Z,66.90
2023-02-12T09:18:17.715Z,59.88
2023-02-12T09:20:46.130Z,62.38
2023-02-12T09:23:15.481Z,58.85
2023-02-12T09:25:46.420Z,59.35
2023-02-12T09:28:15.620Z,64.65
2023-02-12T09:30:43.347Z,61.15
2023-02-12T09:33:13.150Z,58.88
2023-02-12T09:35:41.591Z,63.22
2023-02-12T09:38:09.953Z,65.03
2023-02-12T09:40:45.004Z,60.47
2023-02-12T09:43:32.066Z,60.40
2023-02-12T09:46:05.939Z,55.60
2023-02-12T09:48:58.924Z,59.92
2023-02-12T09:51:27.634Z,58.40
2023-02-12T09:54:04.210Z,58.72
2023-02-12T09:56:32.494Z,65.93
2023-02-12T09:59:06.660Z,56.38
2023-02-12T10:01:34.894Z,58.38
2023-02-12T10:04:03.311Z,58.22
2023-02-12T10:06:34.745Z,53.08
2023-02-12T10:09:16.066Z,59.95
2023-02-12T10:11:54.775Z,50.30
2023-02-12T10:14:49.939Z,50.38
2023-02-12T10:17:25.105Z,60.00
2023-02-12T10:20:23.625Z,49.10
2023-02-12T10:23:06.305Z,54.55
2023-02-12T10:25:42.148Z,50.00
2023-02-12T10:28:14.399Z,53.17
2023-02-12T10:30:49.275Z,58.30
2023-02-12T10:33:20.377Z,60.00
2023-02-12T10:35:54.869Z,46.42
2023-02-12T10:38:27.426Z,53.22
2023-02-12T10:40:57.943Z,54.58
2023-02-12T10:43:26.468Z,43.08
2023-02-12T10:45:55.905Z,33.50
2023-02-12T10:48:27.103Z,45.17
2023-02-12T10:51:09.729Z,46.55
2023-02-12T10:53:39.924Z,48.50
2023-02-12T10:56:17.330Z,48.97
2023-02-12T10:58:54.553Z,42.83
2023-02-12T11:01:28.003Z,40.38
2023-02-12T11:03:57.020Z,42.13
2023-02-12T11:06:28.583Z,38.78
2023-02-12T11:08:56.704Z,35.40
2023-02-12T11:11:28.416Z,40.50
2023-02-12T11:13:58.991Z,33.15
2023-02-12T11:16:31.903Z,39.58
2023-02-12T11:19:02.018Z,34.72
2023-02-12T11:21:30.026Z,29.60
2023-02-12T11:23:58.107Z,32.22
2023-02-12T11:26:34.514Z,30.52
2023-02-12T11:29:05.653Z,32.50
2023-02-12T11:31:40.229Z,30.13
2023-02-12T11:34:11.568Z,34.00
2023-02-12T11:36:43.819Z,29.63
2023-02-12T11:39:21.283Z,27.95
2023-02-12T11:41:53.607Z,26.70
2023-02-12T11:44:24.033Z,24.13
2023-02-12T11:46:56.476Z,24.90
2023-02-12T11:49:26.825Z,26.52
2023-02-12T11:51:55.761Z,26.00
2023-02-12T11:54:26.686Z,17.10
2023-02-12T11:56:55.456Z,14.15
2023-02-12T11:59:34.612Z,13.45
2023-02-12T12:02:25.820Z,13.57
2023-02-12T12:04:57.286Z,16.65
2023-02-12T12:07:31.353Z,16.95
2023-02-12T12:10:04.709Z,16.05
2023-02-12T12:12:41.751Z,17.58
2023-02-12T12:15:35.969Z,15.52
2023-02-12T12:18:30.143Z,16.83
2023-02-12T12:21:04.735Z,18.38
2023-02-12T12:23:38.457Z,17.27
2023-02-12T12:26:12.146Z,20.98
2023-02-12T12:29:02.808Z,18.00
2023-02-12T12:31:34.458Z,15.23
2023-02-12T12:34:10.505Z,15.40
2023-02-12T12:37:13.713Z,17.00
2023-02-12T12:39:55.141Z,18.88
2023-02-12T12:42:54.608Z,15.57
2023-02-12T12:45:43.754Z,15.25
2023-02-12T12:48:26.871Z,12.90
2023-02-12T12:51:14.760Z,11.57
2023-02-12T12:53:55.792Z,19.63
2023-02-12T12:56:36.222Z,13.27
2023-02-12T12:59:30.367Z,13.52
2023-02-12T13:02:17.843Z,13.82
2023-02-12T13:05:11.040Z,19.48
2023-02-12T13:07:52.921Z,13.70
2023-02-12T13:10:30.673Z,17.88
2023-02-12T13:13:16.309Z,11.45
2023-02-12T13:15:51.996Z,17.30
2023-02-12T13:18:32.314Z,15.02
2023-02-12T13:21:12.735Z,13.10
2023-02-12T13:23:47.213Z,13.95
2023-02-12T13:26:20.296Z,12.35
2023-02-12T13:28:53.554Z,15.05
2023-02-12T13:31:33.550Z,12.02
2023-02-12T13:34:05.542Z,14.10
2023-02-12T13:36:36.493Z,14.00
2023-02-12T13:39:16.946Z,20.50
2023-02-12T13:41:50.846Z,13.85
2023-02-12T13:44:28.829Z,14.95
2023-02-12T13:47:01.446Z,10.98
2023-02-12T13:49:42.545Z,17.40
2023-02-12T13:52:19.893Z,10.52
2023-02-12T13:54:59.392Z,12.05
2023-02-12T13:57:27.158Z,10.90
2023-02-12T13:59:55.679Z,10.13
2023-02-12T14:02:45.980Z,10.10
2023-02-12T14:05:29.632Z,10.10
2023-02-12T14:08:00.120Z,9.50
2023-02-12T14:10:32.703Z,8.38
2023-02-12T14:13:16.130Z,6.80
2023-02-12T14:15:46.365Z,8.55
2023-02-12T14:18:30.110Z,6.78
2023-02-12T14:21:37.950Z,7.40
2023-02-12T14:24:51.033Z,6.95
2023-02-12T14:27:28.373Z,7.47
2023-02-12T14:30:05.127Z,9.25
2023-02-12T14:33:10.072Z,8.02
2023-02-12T14:35:40.220Z,7.13
2023-02-12T14:38:47.550Z,8.05
2023-02-12T14:41:34.263Z,5.35
2023-02-12T14:44:45.614Z,6.03
2023-02-12T14:47:37.174Z,6.07
2023-02-12T14:50:12.994Z,6.53
2023-02-12T14:52:44.837Z,7.32
2023-02-12T14:55:23.291Z,7.30
2023-02-12T14:57:55.659Z,7.95
2023-02-12T15:00:28.801Z,9.35
2023-02-12T15:03:02.641Z,6.88
2023-02-12T15:05:33.328Z,5.90
2023-02-12T15:08:04.162Z,7.05
2023-02-12T15:10:38.436Z,9.38
2023-02-12T15:13:20.918Z,7.43
2023-02-12T15:15:53.087Z,7.63
2023-02-12T15:18:29.216Z,5.72
2023-02-12T15:21:03.541Z,4.68
2023-02-12T15:23:41.547Z,6.90
2023-02-12T15:26:15.788Z,5.80
2023-02-12T15:28:46.739Z,6.13
2023-02-12T15:31:17.946Z,6.28
2023-02-12T15:33:49.257Z,5.88
2023-02-12T15:36:20.019Z,7.47
2023-02-12T15:38:51.612Z,6.70
2023-02-12T15:41:28.629Z,7.10
2023-02-12T15:43:56.805Z,7.65
2023-02-12T15:46:24.589Z,7.07
2023-02-12T15:48:55.475Z,8.35
2023-02-12T15:51:30.648Z,8.05
2023-02-12T15:54:01.173Z,6.95
2023-02-12T15:56:29.263Z,8.30
2023-02-12T15:58:59.334Z,7.35
2023-02-12T16:01:29.421Z,8.57
2023-02-12T16:04:00.476Z,5.97
2023-02-12T16:06:32.336Z,7.75
2023-02-12T16:09:03.413Z,7.28
2023-02-12T16:11:32.598Z,6.72
2023-02-12T16:14:02.895Z,6.45
2023-02-12T16:16:32.606Z,6.45
2023-02-12T16:19:19.878Z,9.52
2023-02-12T16:21:50.575Z,8.63
2023-02-12T16:24:26.543Z,5.32
2023-02-12T16:26:54.626Z,8.32
2023-02-12T16:29:22.793Z,7.75
2023-02-12T16:31:55.683Z,6.03
2023-02-12T16:34:37.137Z,6.30
2023-02-12T16:37:42.522Z,7.75
2023-02-12T16:40:33.364Z,6.55
2023-02-12T16:43:26.041Z,8.70
2023-02-12T16:46:04.929Z,5.80
2023-02-12T16:48:39.249Z,10.85
2023-02-12T16:51:22.341Z,9.75
2023-02-12T16:53:53.836Z,9.27
2023-02-12T16:56:23.429Z,10.52
2023-02-12T16:58:54.609Z,7.35
2023-02-12T17:01:25.280Z,9.50
2023-02-12T17:03:54.170Z,10.75
2023-02-12T17:06:25.793Z,8.00
2023-02-12T17:08:53.582Z,8.30
2023-02-12T17:11:23.027Z,9.13
2023-02-12T17:13:52.560Z,9.75
2023-02-12T17:16:30.269Z,12.10
2023-02-12T17:18:59.507Z,11.30
2023-02-12T17:21:30.712Z,12.00
2023-02-12T17:23:58.478Z,12.45
2023-02-12T17:26:26.892Z,11.52
2023-02-12T17:28:54.549Z,15.00
2023-02-12T17:31:23.852Z,12.77
2023-02-12T17:33:51.872Z,14.65
2023-02-12T17:36:19.607Z,11.02
2023-02-12T17:38:48.772Z,11.27
2023-02-12T17:41:16.573Z,11.02
2023-02-12T17:43:44.440Z,12.45
2023-02-12T17:46:12.957Z,10.05
2023-02-12T17:48:41.400Z,13.98
2023-02-12T17:51:11.466Z,12.30
2023-02-12T17:53:39.239Z,13.40
2023-02-12T17:56:11.370Z,17.15
2023-02-12T17:58:39.551Z,19.15
2023-02-12T18:01:08.937Z,17.10
2023-02-12T18:03:37.427Z,19.23
2023-02-12T18:06:06.891Z,13.65
2023-02-12T18:08:34.841Z,15.98
2023-02-12T18:11:06.394Z,16.40
2023-02-12T18:13:35.651Z,15.95
2023-02-12T18:16:03.993Z,15.77
2023-02-12T18:18:32.863Z,17.83
2023-02-12T18:21:00.552Z,18.25
2023-02-12T18:23:28.192Z,15.88
2023-02-12T18:25:55.892Z,13.93
2023-02-12T18:28:23.671Z,19.90
2023-02-12T18:30:59.463Z,13.07
2023-02-12T18:33:27.372Z,15.57
2023-02-12T18:36:00.045Z,15.65
2023-02-12T18:38:27.956Z,15.65
2023-02-12T18:40:55.897Z,16.52
2023-02-12T18:43:24.841Z,20.05
2023-02-12T18:45:53.071Z,14.20
2023-02-12T18:48:23.258Z,14.35
2023-02-12T18:50:53.174Z,16.40
2023-02-12T18:53:20.965Z,16.50
2023-02-12T18:55:48.649Z,21.40
2023-02-12T18:58:16.283Z,22.95
2023-02-12T19:00:43.908Z,19.02
2023-02-12T19:03:11.569Z,17.98
2023-02-12T19:05:40.639Z,20.05
2023-02-12T19:08:08.446Z,19.25
2023-02-12T19:10:39.130Z,21.15
2023-02-12T19:13:07.079Z,22.20
2023-02-12T19:15:34.935Z,19.27
2023-02-12T19:18:02.643Z,19.05
2023-02-12T19:20:30.344Z,18.02
2023-02-12T19:22:59.381Z,22.83
2023-02-12T19:25:27.074Z,20.38
2023-02-12T19:27:54.841Z,20.10
2023-02-12T19:30:22.718Z,18.67
2023-02-12T19:32:50.508Z,21.83
2023-02-12T19:35:18.330Z,23.33
2023-02-12T19:37:46.012Z,19.02
2023-02-12T19:40:15.627Z,68.75
2023-02-12T19:42:43.337Z,20.75
2023-02-12T19:45:11.290Z,21.80
2023-02-12T19:47:39.178Z,23.85
2023-02-12T19:50:08.306Z,23.15
2023-02-12T19:52:36.277Z,21.02
2023-02-12T19:55:04.102Z,19.00
2023-02-12T19:57:36.729Z,17.35
2023-02-12T20:00:05.350Z,18.42
2023-02-12T20:02:33.154Z,18.67
2023-02-12T20:05:00.877Z,21.00
2023-02-12T20:07:28.621Z,17.60
2023-02-12T20:09:56.353Z,23.05
2023-02-12T20:12:24.153Z,21.25
2023-02-12T20:14:55.480Z,19.63
2023-02-12T20:17:23.239Z,20.00
2023-02-12T20:19:50.949Z,20.38
2023-02-12T20:22:18.558Z,21.42
2023-02-12T20:24:46.353Z,23.52
2023-02-12T20:27:14.095Z,21.30
2023-02-12T20:29:41.846Z,22.35
2023-02-12T20:32:11.975Z,20.10
2023-02-12T20:34:50.505Z,17.90
2023-02-12T20:37:19.163Z,29.13
2023-02-12T20:39:48.163Z,22.00
2023-02-12T20:42:15.877Z,38.03
2023-02-12T20:44:43.607Z,39.65
2023-02-12T20:47:12.637Z,38.53
2023-02-12T20:49:40.374Z,45.08
2023-02-12T20:52:08.317Z,24.50
2023-02-12T20:54:37.937Z,26.77
2023-02-12T20:57:06.993Z,20.33
2023-02-12T20:59:34.801Z,25.38
2023-02-12T21:02:02.623Z,27.42
2023-02-12T21:04:32.291Z,26.33
2023-02-12T21:07:00.506Z,19.98
2023-02-12T21:10:00.386Z,21.48
2023-02-12T21:12:46.166Z,24.92
2023-02-12T21:15:41.751Z,22.60
2023-02-12T21:18:25.735Z,27.65
2023-02-12T21:21:36.668Z,24.30
2023-02-12T21:24:35.036Z,22.95
2023-02-12T21:27:33.335Z,20.80
2023-02-12T21:30:16.480Z,24.05
2023-02-12T21:33:02.529Z,23.15
2023-02-12T21:35:45.794Z,20.92
2023-02-12T21:41:48.042Z,23.08
2023-02-12T21:44:46.457Z,22.23
2023-02-12T21:50:45.961Z,24.75
2023-02-12T21:53:49.482Z,23.50
2023-02-12T21:56:44.490Z,21.45
2023-02-12T21:59:27.780Z,21.67
2023-02-12T22:02:19.227Z,23.13
2023-02-12T22:05:00.419Z,24.80
2023-02-12T22:08:33.852Z,20.52
2023-02-12T22:11:06.163Z,21.10
2023-02-12T22:13:54.690Z,22.55
2023-02-12T22:16:45.264Z,25.35
2023-02-12T22:19:40.054Z,20.25
2023-02-12T22:22:21.985Z,22.70
2023-02-12T22:25:11.392Z,20.85
2023-02-12T22:31:32.962Z,25.15
2023-02-12T22:34:20.090Z,21.17
2023-02-12T22:37:16.185Z,24.75
2023-02-12T22:40:08.680Z,22.50
2023-02-12T22:43:17.708Z,24.42
2023-02-12T22:45:45.593Z,20.73
2023-02-12T22:48:13.303Z,20.35
2023-02-12T22:50:41.103Z,20.15
2023-02-12T22:53:08.815Z,22.25
2023-02-12T22:55:36.837Z,20.77
2023-02-12T22:58:05.945Z,20.40
2023-02-12T23:00:33.911Z,23.17
2023-02-12T23:03:01.692Z,18.80
2023-02-12T23:05:29.438Z,20.88
2023-02-12T23:07:57.260Z,19.90
2023-02-12T23:10:24.998Z,24.90
2023-02-12T23:12:52.751Z,20.75
2023-02-12T23:15:21.858Z,24.05
2023-02-12T23:17:49.839Z,21.13
2023-02-12T23:20:17.952Z,19.02
2023-02-12T23:22:45.648Z,20.98
2023-02-12T23:25:13.465Z,24.90
2023-02-12T23:27:41.185Z,24.60
2023-02-12T23:30:09.941Z,20.85
2023-02-12T23:32:39.083Z,18.38
2023-02-12T23:35:07.355Z,21.33
2023-02-12T23:37:35.093Z,24.88
2023-02-12T23:40:02.751Z,21.52
2023-02-12T23:42:30.473Z,25.40
2023-02-12T23:44:58.141Z,22.42
2023-02-12T23:47:25.972Z,20.73
2023-02-12T23:49:55.098Z,21.65
2023-02-12T23:52:22.732Z,28.77
2023-02-12T23:54:50.374Z,24.02
2023-02-12T23:57:18.257Z,22.45
2023-02-12T23:59:46.155Z,22.58
